^^

..:: Storico WU ::..




Lo storico viene creato da WUnderground con i dati che la stazione Meteomincio invia al loro server. L' aggiornamento viene fatto ogni 5 minuti circa, tuttavia possono esserci intervalli pił ampi a causa di errori, interruzioni di servizio o problemi nell' invio tramite FTP.


Storico stazione MeteoMincio
Giorno Sommario per Maggio 22, 2022 Unità:  Inglese    Metrico   Entrambi
Giorno Settimana Mese Anno
  Max: Min: Media:
Temperatura: 87.8 °F 64.4 °F 77.4 °F
Dew Point: 71.6 °F 60.8 °F 66.9 °F
Umidità: 90% 55% 72%
Velocità vento: 7.5mph 0mph 3.3mph
Raffica: 13mph - -
Direzione- - SSE
Pressione: 29.9 in 29.7 in -
Precipitazioni: 0 in    
 
 
Tabulato Dati per Maggio 22, 2022
Ora Temperatura Dew Point Pressione Direzione Velocità vento Raffica Umidità Intensità pioggia (oraria) Info solare Situazione
00:04 71.6 °F 64.4 °F 29.9 in NE 5.6 mph 8.1 mph 79% 0 in 0.00 W/m2 unknown
00:09 71.6 °F 64.4 °F 29.9 in ENE 5 mph 8.1 mph 79% 0 in 0.00 W/m2 unknown
00:14 71.6 °F 64.4 °F 29.9 in NE 5 mph 8.1 mph 79% 0 in 0.00 W/m2 unknown
00:19 71.6 °F 66.2 °F 29.9 in NE 4.3 mph 6.8 mph 80% 0 in 0.00 W/m2 unknown
00:24 71.6 °F 66.2 °F 29.9 in ENE 3.7 mph 5 mph 80% 0 in 0.00 W/m2 unknown
00:29 71.6 °F 64.4 °F 29.9 in ENE 3.7 mph 5 mph 80% 0 in 0.00 W/m2 unknown
00:34 71.6 °F 64.4 °F 29.9 in NE 3.1 mph 5 mph 80% 0 in 0.00 W/m2 unknown
00:39 71.6 °F 64.4 °F 29.9 in NE 2.5 mph 3.7 mph 80% 0 in 0.00 W/m2 unknown
00:44 71.6 °F 64.4 °F 29.9 in NW 1.2 mph 3.1 mph 80% 0 in 0.00 W/m2 unknown
00:49 71.6 °F 64.4 °F 29.9 in Calm   1.9 mph 81% 0 in 0.00 W/m2 unknown
00:54 71.6 °F 64.4 °F 29.9 in Calm     81% 0 in 0.00 W/m2 unknown
00:59 71.6 °F 64.4 °F 29.9 in Calm     81% 0 in 0.00 W/m2 unknown
01:04 69.8 °F 64.4 °F 29.9 in Calm     83% 0 in 0.00 W/m2 unknown
01:09 69.8 °F 64.4 °F 29.9 in Calm     84% 0 in 0.00 W/m2 unknown
01:14 69.8 °F 64.4 °F 29.9 in Calm     84% 0 in 0.00 W/m2 unknown
01:19 69.8 °F 64.4 °F 29.9 in Calm     84% 0 in 0.00 W/m2 unknown
01:24 69.8 °F 64.4 °F 29.9 in Calm     84% 0 in 0.00 W/m2 unknown
01:29 69.8 °F 64.4 °F 29.9 in Calm     84% 0 in 0.00 W/m2 unknown
01:34 69.8 °F 64.4 °F 29.9 in Calm     84% 0 in 0.00 W/m2 unknown
01:39 69.8 °F 64.4 °F 29.9 in Calm     84% 0 in 0.00 W/m2 unknown
01:44 69.8 °F 64.4 °F 29.9 in Calm     84% 0 in 0.00 W/m2 unknown
01:49 69.8 °F 64.4 °F 29.9 in Calm     84% 0 in 0.00 W/m2 unknown
01:54 69.8 °F 64.4 °F 29.9 in NE 2.5 mph 3.7 mph 84% 0 in 0.00 W/m2 unknown
01:59 69.8 °F 64.4 °F 29.9 in NE 3.1 mph 3.7 mph 85% 0 in 0.00 W/m2 unknown
02:04 69.8 °F 64.4 °F 29.9 in NE 3.1 mph 3.7 mph 85% 0 in 0.00 W/m2 unknown
02:09 69.8 °F 64.4 °F 29.9 in NE 3.7 mph 5 mph 85% 0 in 0.00 W/m2 unknown
02:14 69.8 °F 64.4 °F 29.9 in NE 3.7 mph 5 mph 85% 0 in 0.00 W/m2 unknown
02:19 69.8 °F 64.4 °F 29.9 in NE 3.7 mph 5 mph 85% 0 in 0.00 W/m2 unknown
02:24 69.8 °F 64.4 °F 29.9 in ENE 3.7 mph 5 mph 86% 0 in 0.00 W/m2 unknown
02:29 69.8 °F 64.4 °F 29.9 in ENE 3.1 mph 3.7 mph 86% 0 in 0.00 W/m2 unknown
02:34 68 °F 64.4 °F 29.9 in ENE 3.7 mph 5 mph 87% 0 in 0.00 W/m2 unknown
02:39 68 °F 64.4 °F 29.9 in ENE 3.1 mph 5 mph 87% 0 in 0.00 W/m2 unknown
02:44 68 °F 64.4 °F 29.9 in ENE 3.7 mph 5 mph 87% 0 in 0.00 W/m2 unknown
02:49 68 °F 64.4 °F 29.9 in ENE 3.7 mph 5 mph 87% 0 in 0.00 W/m2 unknown
02:54 68 °F 64.4 °F 29.9 in ENE 3.7 mph 5 mph 87% 0 in 0.00 W/m2 unknown
02:59 68 °F 64.4 °F 29.9 in ENE 3.1 mph 5 mph 87% 0 in 0.00 W/m2 unknown
03:04 68 °F 64.4 °F 29.9 in ENE 3.7 mph 5 mph 87% 0 in 0.00 W/m2 unknown
03:09 68 °F 64.4 °F 29.9 in ENE 3.1 mph 5 mph 87% 0 in 0.00 W/m2 unknown
03:14 68 °F 64.4 °F 29.9 in ENE 3.1 mph 5 mph 87% 0 in 0.00 W/m2 unknown
03:19 68 °F 64.4 °F 29.9 in ENE 3.1 mph 5 mph 87% 0 in 0.00 W/m2 unknown
03:24 68 °F 64.4 °F 29.9 in ENE 3.1 mph 5 mph 87% 0 in 0.00 W/m2 unknown
03:29 68 °F 64.4 °F 29.9 in ENE 3.1 mph 5 mph 87% 0 in 0.00 W/m2 unknown
03:34 68 °F 64.4 °F 29.9 in ENE 4.3 mph 5 mph 86% 0 in 0.00 W/m2 unknown
03:39 68 °F 64.4 °F 29.9 in ENE 4.3 mph 6.8 mph 86% 0 in 0.00 W/m2 unknown
03:44 68 °F 62.6 °F 29.9 in ENE 5 mph 6.8 mph 86% 0 in 0.00 W/m2 unknown
03:49 68 °F 62.6 °F 29.9 in ENE 3.1 mph 5 mph 87% 0 in 0.00 W/m2 unknown
03:54 68 °F 62.6 °F 29.9 in ENE 3.7 mph 5 mph 87% 0 in 0.00 W/m2 unknown
03:59 68 °F 62.6 °F 29.9 in ENE 2.5 mph 3.7 mph 87% 0 in 0.00 W/m2 unknown
04:04 68 °F 62.6 °F 29.9 in East 2.5 mph 3.7 mph 86% 0 in 0.00 W/m2 unknown
04:09 68 °F 62.6 °F 29.9 in East 2.5 mph 3.7 mph 86% 0 in 0.00 W/m2 unknown
04:14 68 °F 62.6 °F 29.9 in ENE 2.5 mph 3.7 mph 86% 0 in 0.00 W/m2 unknown
04:19 68 °F 62.6 °F 29.9 in ENE 2.5 mph 3.7 mph 85% 0 in 0.00 W/m2 unknown
04:24 68 °F 62.6 °F 29.9 in ENE 0.6 mph 2.5 mph 85% 0 in 0.00 W/m2 unknown
04:29 68 °F 62.6 °F 29.9 in Calm   1.9 mph 86% 0 in 0.00 W/m2 unknown
04:34 68 °F 62.6 °F 29.9 in Calm     86% 0 in 0.00 W/m2 unknown
04:39 66.2 °F 62.6 °F 29.9 in Calm   1.2 mph 86% 0 in 0.00 W/m2 unknown
04:44 66.2 °F 62.6 °F 29.9 in ENE 1.2 mph 1.9 mph 87% 0 in 0.00 W/m2 unknown
04:49 66.2 °F 62.6 °F 29.9 in East 1.2 mph 1.9 mph 88% 0 in 0.00 W/m2 unknown
04:54 66.2 °F 62.6 °F 29.9 in SSE 1.2 mph 2.5 mph 88% 0 in 0.00 W/m2 unknown
04:59 66.2 °F 62.6 °F 29.9 in WSW 1.9 mph 3.7 mph 88% 0 in 0.00 W/m2 unknown
05:04 64.4 °F 62.6 °F 29.9 in WSW 1.2 mph 3.1 mph 89% 0 in 0.00 W/m2 unknown
05:09 66.2 °F 62.6 °F 29.9 in WSW 1.2 mph 1.9 mph 89% 0 in 0.00 W/m2 unknown
05:14 66.2 °F 62.6 °F 29.9 in WSW 1.2 mph 1.2 mph 89% 0 in 0.00 W/m2 unknown
05:19 66.2 °F 62.6 °F 29.9 in WSW 1.2 mph 1.2 mph 89% 0 in 0.00 W/m2 unknown
05:24 66.2 °F 62.6 °F 29.9 in West 1.9 mph 3.1 mph 88% 0 in 0.00 W/m2 unknown
05:29 66.2 °F 62.6 °F 29.9 in NW 1.9 mph 3.7 mph 89% 0 in 0.00 W/m2 unknown
05:34 66.2 °F 62.6 °F 29.9 in Calm   3.1 mph 89% 0 in 0.00 W/m2 unknown
05:39 66.2 °F 62.6 °F 29.9 in NW 0.6 mph 1.2 mph 88% 0 in 0.00 W/m2 unknown
05:44 64.4 °F 60.8 °F 29.9 in Calm   1.2 mph 89% 0 in 5.00 W/m2 unknown
05:49 64.4 °F 60.8 °F 29.9 in Calm     89% 0 in 7.00 W/m2 unknown
05:54 64.4 °F 60.8 °F 29.9 in Calm     89% 0 in 11.00 W/m2 unknown
05:59 64.4 °F 62.6 °F 29.9 in Calm     89% 0 in 12.00 W/m2 unknown
06:04 64.4 °F 62.6 °F 29.9 in WNW 0.6 mph 2.5 mph 89% 0 in 16.00 W/m2 unknown
06:09 64.4 °F 60.8 °F 29.9 in West 1.2 mph 2.5 mph 90% 0 in 21.00 W/m2 unknown
06:14 64.4 °F 60.8 °F 29.9 in SW 1.2 mph 2.5 mph 90% 0 in 26.00 W/m2 unknown
06:19 64.4 °F 62.6 °F 29.9 in SW 1.2 mph 1.9 mph 90% 0 in 35.00 W/m2 unknown
06:24 66.2 °F 62.6 °F 29.9 in Calm   1.2 mph 90% 0 in 42.00 W/m2 unknown
06:29 66.2 °F 62.6 °F 29.9 in SW 1.2 mph 1.2 mph 89% 0 in 49.00 W/m2 unknown
06:34 66.2 °F 62.6 °F 29.9 in SW 0.6 mph 1.9 mph 89% 0 in 54.00 W/m2 unknown
06:39 66.2 °F 62.6 °F 29.9 in SW 1.9 mph 2.5 mph 89% 0 in 58.00 W/m2 unknown
06:44 66.2 °F 62.6 °F 29.9 in West 1.2 mph 2.5 mph 89% 0 in 53.00 W/m2 unknown
06:49 66.2 °F 62.6 °F 29.9 in West 1.2 mph 2.5 mph 89% 0 in 63.00 W/m2 unknown
06:54 66.2 °F 62.6 °F 29.9 in West 1.2 mph 1.9 mph 90% 0 in 72.00 W/m2 unknown
06:59 66.2 °F 62.6 °F 29.9 in Calm   1.2 mph 90% 0 in 86.00 W/m2 unknown
07:04 68 °F 64.4 °F 29.9 in WSW 0.6 mph 2.5 mph 89% 0 in 98.00 W/m2 unknown
07:09 68 °F 64.4 °F 29.9 in West 1.2 mph 2.5 mph 89% 0 in 113.00 W/m2 unknown
07:14 68 °F 64.4 °F 29.9 in WNW 1.2 mph 2.5 mph 88% 0 in 128.00 W/m2 unknown
07:19 68 °F 64.4 °F 29.9 in NW 1.2 mph 2.5 mph 86% 0 in 146.00 W/m2 unknown
07:24 68 °F 64.4 °F 29.9 in Calm   1.9 mph 86% 0 in 167.00 W/m2 unknown
07:29 69.8 °F 64.4 °F 29.9 in WNW 0.6 mph 2.5 mph 85% 0 in 185.00 W/m2 unknown
07:34 69.8 °F 64.4 °F 29.9 in Calm   1.9 mph 85% 0 in 188.00 W/m2 unknown
07:39 69.8 °F 64.4 °F 29.9 in NE 1.9 mph 3.1 mph 85% 0 in 185.00 W/m2 unknown
07:44 69.8 °F 64.4 °F 29.9 in NE 1.9 mph 3.7 mph 83% 0 in 160.00 W/m2 unknown
07:49 71.6 °F 64.4 °F 29.9 in ENE 2.5 mph 3.7 mph 82% 0 in 165.00 W/m2 unknown
07:54 71.6 °F 64.4 °F 29.9 in NE 2.5 mph 3.7 mph 81% 0 in 192.00 W/m2 unknown
07:59 71.6 °F 64.4 °F 29.9 in NE 2.5 mph 3.7 mph 81% 0 in 211.00 W/m2 unknown
08:04 71.6 °F 64.4 °F 29.9 in NE 3.1 mph 3.7 mph 80% 0 in 192.00 W/m2 unknown
08:09 71.6 °F 64.4 °F 29.9 in NE 3.1 mph 3.7 mph 80% 0 in 207.00 W/m2 unknown
08:14 71.6 °F 64.4 °F 29.9 in ENE 3.7 mph 5 mph 81% 0 in 248.00 W/m2 unknown
08:19 71.6 °F 66.2 °F 29.9 in ENE 3.1 mph 5 mph 81% 0 in 278.00 W/m2 unknown
08:24 71.6 °F 66.2 °F 29.9 in ENE 2.5 mph 3.7 mph 82% 0 in 316.00 W/m2 unknown
08:29 71.6 °F 66.2 °F 29.9 in ESE 2.5 mph 3.7 mph 81% 0 in 304.00 W/m2 unknown
08:34 71.6 °F 66.2 °F 29.9 in East 3.1 mph 5 mph 81% 0 in 276.00 W/m2 unknown
08:39 71.6 °F 66.2 °F 29.9 in East 3.1 mph 6.2 mph 81% 0 in 302.00 W/m2 unknown
08:44 71.6 °F 66.2 °F 29.9 in ESE 3.1 mph 6.2 mph 81% 0 in 359.00 W/m2 unknown
08:49 73.4 °F 66.2 °F 29.9 in ESE 3.1 mph 6.2 mph 80% 0 in 387.00 W/m2 unknown
08:54 73.4 °F 66.2 °F 29.9 in ENE 3.1 mph 3.7 mph 80% 0 in 438.00 W/m2 unknown
08:59 73.4 °F 66.2 °F 29.9 in East 3.1 mph 5 mph 79% 0 in 468.00 W/m2 unknown
09:04 73.4 °F 66.2 °F 29.9 in ENE 3.7 mph 6.2 mph 79% 0 in 492.00 W/m2 unknown
09:09 73.4 °F 66.2 °F 29.9 in East 5 mph 6.2 mph 77% 0 in 482.00 W/m2 unknown
09:14 73.4 °F 66.2 °F 29.9 in ESE 5 mph 6.2 mph 77% 0 in 462.00 W/m2 unknown
09:19 75.2 °F 66.2 °F 29.9 in East 3.1 mph 6.2 mph 77% 0 in 410.00 W/m2 unknown
09:24 75.2 °F 68 °F 29.9 in ESE 3.1 mph 5 mph 78% 0 in 378.00 W/m2 unknown
09:29 75.2 °F 66.2 °F 29.9 in SE 2.5 mph 5 mph 77% 0 in 345.00 W/m2 unknown
09:34 75.2 °F 66.2 °F 29.9 in ESE 3.1 mph 5 mph 77% 0 in 338.00 W/m2 unknown
09:39 75.2 °F 66.2 °F 29.9 in ESE 3.1 mph 5 mph 76% 0 in 352.00 W/m2 unknown
09:44 75.2 °F 66.2 °F 29.9 in East 3.7 mph 5 mph 75% 0 in 397.00 W/m2 unknown
09:49 75.2 °F 66.2 °F 29.9 in SE 3.7 mph 5 mph 74% 0 in 436.00 W/m2 unknown
09:54 75.2 °F 66.2 °F 29.9 in ESE 3.1 mph 5 mph 74% 0 in 454.00 W/m2 unknown
09:59 75.2 °F 66.2 °F 29.9 in SSE 3.1 mph 5 mph 73% 0 in 489.00 W/m2 unknown
10:04 77 °F 68 °F 29.9 in ESE 3.7 mph 6.2 mph 74% 0 in 489.00 W/m2 unknown
10:09 77 °F 66.2 °F 29.9 in East 3.7 mph 6.2 mph 72% 0 in 471.00 W/m2 unknown
10:14 77 °F 66.2 °F 29.9 in ESE 3.7 mph 8.1 mph 72% 0 in 555.00 W/m2 unknown
10:19 77 °F 68 °F 29.9 in SE 4.3 mph 8.1 mph 73% 0 in 592.00 W/m2 unknown
10:24 77 °F 68 °F 29.9 in ESE 3.1 mph 8.1 mph 72% 0 in 619.00 W/m2 unknown
10:29 78.8 °F 68 °F 29.9 in ESE 4.3 mph 6.2 mph 71% 0 in 628.00 W/m2 unknown
10:34 78.8 °F 68 °F 29.9 in East 5.6 mph 8.1 mph 70% 0 in 654.00 W/m2 unknown
10:39 78.8 °F 66.2 °F 29.9 in ENE 2.5 mph 8.1 mph 68% 0 in 654.00 W/m2 unknown
10:44 78.8 °F 66.2 °F 29.9 in East 3.7 mph 5 mph 68% 0 in 659.00 W/m2 unknown
10:49 78.8 °F 68 °F 29.9 in East 3.7 mph 6.8 mph 68% 0 in 677.00 W/m2 unknown
10:54 78.8 °F 68 °F 29.9 in SE 3.7 mph 6.8 mph 66% 0 in 642.00 W/m2 unknown
10:59 78.8 °F 66.2 °F 29.9 in ESE 3.7 mph 6.2 mph 67% 0 in 661.00 W/m2 unknown
11:04 78.8 °F 68 °F 29.9 in SE 4.3 mph 8.7 mph 68% 0 in 754.00 W/m2 unknown
11:09 78.8 °F 68 °F 29.9 in ESE 7.5 mph 9.3 mph 68% 0 in 754.00 W/m2 unknown
11:14 78.8 °F 68 °F 29.9 in East 5 mph 8.7 mph 67% 0 in 777.00 W/m2 unknown
11:19 80.6 °F 68 °F 29.9 in ESE 5.6 mph 8.1 mph 67% 0 in 751.00 W/m2 unknown
11:24 80.6 °F 68 °F 29.9 in SE 3.7 mph 8.1 mph 66% 0 in 501.00 W/m2 unknown
11:29 80.6 °F 68 °F 29.9 in East 3.7 mph 5 mph 68% 0 in 582.00 W/m2 unknown
11:34 80.6 °F 68 °F 29.9 in East 5.6 mph 8.1 mph 67% 0 in 805.00 W/m2 unknown
11:39 80.6 °F 68 °F 29.9 in ENE 5 mph 8.1 mph 65% 0 in 800.00 W/m2 unknown
11:44 80.6 °F 68 °F 29.9 in ENE 5 mph 8.1 mph 65% 0 in 795.00 W/m2 unknown
11:49 80.6 °F 68 °F 29.9 in ENE 5.6 mph 8.1 mph 64% 0 in 802.00 W/m2 unknown
11:54 82.4 °F 68 °F 29.9 in ESE 5.6 mph 8.1 mph 64% 0 in 786.00 W/m2 unknown
11:59 82.4 °F 68 °F 29.9 in East 6.2 mph 9.3 mph 62% 0 in 795.00 W/m2 unknown
12:04 82.4 °F 68 °F 29.9 in SE 4.3 mph 8.7 mph 62% 0 in 784.00 W/m2 unknown
12:09 82.4 °F 68 °F 29.9 in East 5.6 mph 6.8 mph 62% 0 in 784.00 W/m2 unknown
12:14 82.4 °F 68 °F 29.9 in East 6.2 mph 8.1 mph 62% 0 in 784.00 W/m2 unknown
12:19 82.4 °F 68 °F 29.9 in ESE 6.2 mph 8.1 mph 64% 0 in 786.00 W/m2 unknown
12:24 82.4 °F 69.8 °F 29.9 in ENE 5.6 mph 8.1 mph 64% 0 in 779.00 W/m2 unknown
12:29 84.2 °F 69.8 °F 29.9 in East 6.2 mph 8.1 mph 63% 0 in 789.00 W/m2 unknown
12:34 84.2 °F 69.8 °F 29.9 in East 7.5 mph 8.1 mph 63% 0 in 796.00 W/m2 unknown
12:39 84.2 °F 68 °F 29.9 in ENE 6.8 mph 8.1 mph 62% 0 in 800.00 W/m2 unknown
12:44 84.2 °F 68 °F 29.9 in East 5.6 mph 8.1 mph 61% 0 in 814.00 W/m2 unknown
12:49 84.2 °F 68 °F 29.9 in East 5.6 mph 8.1 mph 60% 0 in 729.00 W/m2 unknown
12:54 84.2 °F 68 °F 29.9 in East 5 mph 8.1 mph 61% 0 in 698.00 W/m2 unknown
12:59 84.2 °F 68 °F 29.9 in East 5 mph 6.8 mph 61% 0 in 802.00 W/m2 unknown
13:04 84.2 °F 69.8 °F 29.9 in East 5.6 mph 8.1 mph 61% 0 in 823.00 W/m2 unknown
13:09 84.2 °F 68 °F 29.9 in ENE 6.2 mph 8.1 mph 60% 0 in 844.00 W/m2 unknown
13:14 84.2 °F 69.8 °F 29.9 in ENE 6.2 mph 8.1 mph 61% 0 in 816.00 W/m2 unknown
13:19 84.2 °F 69.8 °F 29.9 in NE 5 mph 6.8 mph 63% 0 in 729.00 W/m2 unknown
13:24 84.2 °F 68 °F 29.9 in ESE 6.8 mph 8.1 mph 60% 0 in 865.00 W/m2 unknown
13:29 84.2 °F 68 °F 29.8 in ESE 6.2 mph 8.1 mph 60% 0 in 851.00 W/m2 unknown
13:34 84.2 °F 68 °F 29.8 in ESE 5.6 mph 8.1 mph 60% 0 in 872.00 W/m2 unknown
13:39 86 °F 68 °F 29.8 in East 3.7 mph 6.8 mph 59% 0 in 872.00 W/m2 unknown
13:44 86 °F 68 °F 29.8 in ESE 3.7 mph 6.2 mph 57% 0 in 846.00 W/m2 unknown
13:49 86 °F 68 °F 29.8 in East 3.7 mph 6.8 mph 58% 0 in 821.00 W/m2 unknown
13:54 86 °F 68 °F 29.8 in SE 4.3 mph 6.8 mph 58% 0 in 828.00 W/m2 unknown
13:59 86 °F 68 °F 29.8 in SSE 3.7 mph 6.8 mph 57% 0 in 828.00 W/m2 unknown
14:04 86 °F 68 °F 29.8 in SW 3.1 mph 5 mph 58% 0 in 707.00 W/m2 unknown
14:09 86 °F 68 °F 29.8 in West 3.1 mph 5 mph 58% 0 in 701.00 W/m2 unknown
14:14 84.2 °F 68 °F 29.8 in ESE 4.3 mph 5 mph 58% 0 in 696.00 W/m2 unknown
14:19 86 °F 69.8 °F 29.8 in East 3.7 mph 6.2 mph 60% 0 in 729.00 W/m2 unknown
14:24 86 °F 69.8 °F 29.8 in ESE 3.7 mph 6.8 mph 59% 0 in 717.00 W/m2 unknown
14:29 86 °F 69.8 °F 29.8 in SSE 5.6 mph 9.3 mph 59% 0 in 749.00 W/m2 unknown
14:34 86 °F 69.8 °F 29.8 in SSW 5 mph 8.7 mph 59% 0 in 826.00 W/m2 unknown
14:39 86 °F 69.8 °F 29.8 in SW 5 mph 6.8 mph 60% 0 in 766.00 W/m2 unknown
14:44 86 °F 69.8 °F 29.8 in WSW 3.1 mph 5 mph 60% 0 in 798.00 W/m2 unknown
14:49 86 °F 69.8 °F 29.8 in ESE 5 mph 6.8 mph 58% 0 in 772.00 W/m2 unknown
14:54 86 °F 69.8 °F 29.8 in SSE 3.7 mph 6.8 mph 58% 0 in 613.00 W/m2 unknown
14:59 86 °F 69.8 °F 29.8 in SE 5 mph 6.2 mph 58% 0 in 789.00 W/m2 unknown
15:04 86 °F 69.8 °F 29.8 in ESE 4.3 mph 6.8 mph 58% 0 in 779.00 W/m2 unknown
15:09 87.8 °F 69.8 °F 29.8 in SSW 6.8 mph 8.1 mph 57% 0 in 756.00 W/m2 unknown
15:14 87.8 °F 69.8 °F 29.8 in SSW 6.2 mph 8.1 mph 56% 0 in 789.00 W/m2 unknown
15:19 87.8 °F 69.8 °F 29.8 in South 5 mph 6.8 mph 56% 0 in 784.00 W/m2 unknown
15:24 87.8 °F 69.8 °F 29.8 in South 3.7 mph 6.8 mph 56% 0 in 768.00 W/m2 unknown
15:29 87.8 °F 69.8 °F 29.8 in SW 4.3 mph 6.8 mph 56% 0 in 765.00 W/m2 unknown
15:34 87.8 °F 69.8 °F 29.8 in SW 5 mph 6.8 mph 57% 0 in 698.00 W/m2 unknown
15:39 87.8 °F 69.8 °F 29.8 in SW 5.6 mph 8.1 mph 56% 0 in 712.00 W/m2 unknown
15:44 87.8 °F 69.8 °F 29.8 in SSW 5.6 mph 8.1 mph 56% 0 in 733.00 W/m2 unknown
15:49 87.8 °F 69.8 °F 29.8 in South 5.6 mph 8.1 mph 55% 0 in 656.00 W/m2 unknown
15:54 86 °F 69.8 °F 29.8 in SSW 4.3 mph 8.1 mph 56% 0 in 687.00 W/m2 unknown
15:59 86 °F 69.8 °F 29.8 in North 3.7 mph 6.8 mph 58% 0 in 687.00 W/m2 unknown
16:04 86 °F 69.8 °F 29.8 in East 4.3 mph 6.8 mph 59% 0 in 571.00 W/m2 unknown
16:09 86 °F 69.8 °F 29.8 in ENE 5 mph 6.8 mph 58% 0 in 613.00 W/m2 unknown
16:14 86 °F 69.8 °F 29.8 in East 5.6 mph 6.8 mph 57% 0 in 682.00 W/m2 unknown
16:19 87.8 °F 71.6 °F 29.8 in East 4.3 mph 6.8 mph 59% 0 in 679.00 W/m2 unknown
16:24 87.8 °F 69.8 °F 29.8 in East 5 mph 6.8 mph 56% 0 in 659.00 W/m2 unknown
16:29 87.8 °F 69.8 °F 29.8 in SE 3.1 mph 5 mph 58% 0 in 629.00 W/m2 unknown
16:34 87.8 °F 69.8 °F 29.8 in ESE 5.6 mph 9.3 mph 58% 0 in 589.00 W/m2 unknown
16:39 87.8 °F 69.8 °F 29.8 in ENE 5.6 mph 8.7 mph 57% 0 in 610.00 W/m2 unknown
16:44 87.8 °F 69.8 °F 29.8 in NE 6.2 mph 6.8 mph 56% 0 in 592.00 W/m2 unknown
16:49 87.8 °F 69.8 °F 29.8 in NE 5.6 mph 6.8 mph 56% 0 in 429.00 W/m2 unknown
16:54 87.8 °F 69.8 °F 29.8 in ENE 5.6 mph 8.1 mph 56% 0 in 475.00 W/m2 unknown
16:59 86 °F 69.8 °F 29.8 in ENE 6.2 mph 8.1 mph 56% 0 in 475.00 W/m2 unknown
17:04 86 °F 69.8 °F 29.8 in ESE 3.7 mph 6.8 mph 58% 0 in 482.00 W/m2 unknown
17:09 86 °F 69.8 °F 29.8 in East 4.3 mph 6.8 mph 58% 0 in 425.00 W/m2 unknown
17:14 86 °F 69.8 °F 29.8 in ESE 3.1 mph 6.8 mph 58% 0 in 513.00 W/m2 unknown
17:19 86 °F 69.8 °F 29.8 in East 5 mph 8.1 mph 58% 0 in 508.00 W/m2 unknown
17:24 86 °F 69.8 °F 29.8 in ESE 5 mph 8.1 mph 58% 0 in 455.00 W/m2 unknown
17:29 86 °F 69.8 °F 29.8 in East 3.1 mph 5 mph 57% 0 in 420.00 W/m2 unknown
17:34 86 °F 69.8 °F 29.8 in East 3.1 mph 5 mph 57% 0 in 290.00 W/m2 unknown
17:39 86 °F 69.8 °F 29.8 in ESE 2.5 mph 5 mph 59% 0 in 246.00 W/m2 unknown
17:44 86 °F 69.8 °F 29.8 in East 2.5 mph 3.7 mph 60% 0 in 195.00 W/m2 unknown
17:49 86 °F 69.8 °F 29.8 in SSE 1.2 mph 3.1 mph 60% 0 in 149.00 W/m2 unknown
17:54 86 °F 69.8 °F 29.8 in South 1.9 mph 3.7 mph 59% 0 in 144.00 W/m2 unknown
17:59 86 °F 69.8 °F 29.8 in SE 2.5 mph 3.7 mph 59% 0 in 156.00 W/m2 unknown
18:04 86 °F 69.8 °F 29.8 in ESE 1.9 mph 3.1 mph 60% 0 in 174.00 W/m2 unknown
18:09 86 °F 69.8 °F 29.8 in SSE 1.2 mph 2.5 mph 61% 0 in 232.00 W/m2 unknown
18:14 86 °F 71.6 °F 29.8 in ESE 2.5 mph 3.7 mph 63% 0 in 292.00 W/m2 unknown
18:19 86 °F 69.8 °F 29.8 in SE 2.5 mph 3.7 mph 61% 0 in 302.00 W/m2 unknown
18:24 86 °F 69.8 °F 29.8 in SSE 1.9 mph 3.7 mph 60% 0 in 306.00 W/m2 unknown
18:29 86 °F 71.6 °F 29.8 in SE 3.1 mph 5 mph 61% 0 in 302.00 W/m2 unknown
18:34 86 °F 69.8 °F 29.8 in ESE 3.7 mph 5 mph 60% 0 in 278.00 W/m2 unknown
18:39 86 °F 69.8 °F 29.8 in SE 2.5 mph 5 mph 60% 0 in 279.00 W/m2 unknown
18:44 86 °F 69.8 °F 29.8 in South 3.1 mph 5 mph 60% 0 in 271.00 W/m2 unknown
18:49 86 °F 71.6 °F 29.8 in South 3.1 mph 5 mph 60% 0 in 244.00 W/m2 unknown
18:54 86 °F 69.8 °F 29.8 in SSE 3.7 mph 6.2 mph 59% 0 in 221.00 W/m2 unknown
18:59 86 °F 69.8 °F 29.8 in SSE 3.1 mph 6.2 mph 61% 0 in 183.00 W/m2 unknown
19:04 86 °F 69.8 °F 29.8 in SSW 5 mph 6.8 mph 60% 0 in 171.00 W/m2 unknown
19:09 86 °F 69.8 °F 29.8 in SW 5 mph 6.8 mph 61% 0 in 153.00 W/m2 unknown
19:14 86 °F 69.8 °F 29.8 in SSW 5.6 mph 6.8 mph 61% 0 in 120.00 W/m2 unknown
19:19 84.2 °F 69.8 °F 29.8 in SSW 5 mph 6.8 mph 61% 0 in 91.00 W/m2 unknown
19:24 84.2 °F 69.8 °F 29.8 in SSW 5 mph 6.8 mph 62% 0 in 79.00 W/m2 unknown
19:29 84.2 °F 69.8 °F 29.8 in South 3.7 mph 6.2 mph 63% 0 in 70.00 W/m2 unknown
19:34 84.2 °F 69.8 °F 29.8 in SSW 2.5 mph 5 mph 63% 0 in 62.00 W/m2 unknown
19:39 84.2 °F 69.8 °F 29.8 in SSW 2.5 mph 3.7 mph 63% 0 in 58.00 W/m2 unknown
19:44 84.2 °F 69.8 °F 29.8 in SSW 3.1 mph 5 mph 62% 0 in 56.00 W/m2 unknown
19:49 84.2 °F 69.8 °F 29.7 in SSW 3.1 mph 5 mph 63% 0 in 51.00 W/m2 unknown
19:54 84.2 °F 69.8 °F 29.7 in SSW 1.9 mph 3.7 mph 64% 0 in 44.00 W/m2 unknown
19:59 84.2 °F 69.8 °F 29.8 in SSW 2.5 mph 3.7 mph 64% 0 in 39.00 W/m2 unknown
20:04 84.2 °F 69.8 °F 29.8 in SSW 1.9 mph 3.7 mph 65% 0 in 35.00 W/m2 unknown
20:09 82.4 °F 69.8 °F 29.8 in SW 1.9 mph 3.7 mph 65% 0 in 33.00 W/m2 unknown
20:14 82.4 °F 69.8 °F 29.8 in SW 1.9 mph 3.7 mph 66% 0 in 32.00 W/m2 unknown
20:19 82.4 °F 69.8 °F 29.7 in WSW 1.9 mph 3.1 mph 67% 0 in 26.00 W/m2 unknown
20:24 82.4 °F 69.8 °F 29.8 in WSW 2.5 mph 3.7 mph 67% 0 in 21.00 W/m2 unknown
20:29 82.4 °F 69.8 °F 29.7 in WSW 1.9 mph 3.7 mph 68% 0 in 14.00 W/m2 unknown
20:34 82.4 °F 69.8 °F 29.7 in WSW 2.5 mph 3.7 mph 68% 0 in 9.00 W/m2 unknown
20:39 80.6 °F 69.8 °F 29.7 in WSW 2.5 mph 3.7 mph 69% 0 in 5.00 W/m2 unknown
20:44 80.6 °F 69.8 °F 29.8 in West 1.9 mph 3.7 mph 69% 0 in 0.00 W/m2 unknown
20:49 80.6 °F 69.8 °F 29.8 in West 1.9 mph 3.7 mph 69% 0 in 0.00 W/m2 unknown
20:54 80.6 °F 69.8 °F 29.8 in West 1.9 mph 3.7 mph 69% 0 in 0.00 W/m2 unknown
20:59 80.6 °F 69.8 °F 29.8 in West 1.9 mph 3.7 mph 70% 0 in 0.00 W/m2 unknown
21:04 80.6 °F 69.8 °F 29.8 in WNW 2.5 mph 3.7 mph 70% 0 in 0.00 W/m2 unknown
21:09 80.6 °F 69.8 °F 29.8 in West 2.5 mph 3.7 mph 70% 0 in 0.00 W/m2 unknown
21:14 80.6 °F 69.8 °F 29.8 in WSW 2.5 mph 3.7 mph 72% 0 in 0.00 W/m2 unknown
21:19 78.8 °F 69.8 °F 29.8 in WSW 3.1 mph 3.7 mph 72% 0 in 0.00 W/m2 unknown
21:24 78.8 °F 69.8 °F 29.8 in WSW 3.1 mph 3.7 mph 73% 0 in 0.00 W/m2 unknown
21:29 78.8 °F 69.8 °F 29.8 in West 2.5 mph 3.7 mph 73% 0 in 0.00 W/m2 unknown
21:34 78.8 °F 69.8 °F 29.8 in West 2.5 mph 3.7 mph 73% 0 in 0.00 W/m2 unknown
21:39 78.8 °F 69.8 °F 29.8 in West 1.9 mph 3.7 mph 73% 0 in 0.00 W/m2 unknown
21:44 78.8 °F 68 °F 29.8 in West 1.2 mph 3.1 mph 72% 0 in 0.00 W/m2 unknown
21:49 78.8 °F 68 °F 29.8 in WNW 1.2 mph 2.5 mph 72% 0 in 0.00 W/m2 unknown
21:54 78.8 °F 68 °F 29.8 in WNW 2.5 mph 3.7 mph 72% 0 in 0.00 W/m2 unknown
21:59 78.8 °F 68 °F 29.8 in WNW 3.1 mph 3.7 mph 72% 0 in 0.00 W/m2 unknown
22:04 78.8 °F 68 °F 29.8 in WNW 3.7 mph 5 mph 73% 0 in 0.00 W/m2 unknown
22:09 78.8 °F 68 °F 29.8 in WNW 3.7 mph 5 mph 73% 0 in 0.00 W/m2 unknown
22:14 78.8 °F 68 °F 29.8 in WNW 3.7 mph 3.7 mph 73% 0 in 0.00 W/m2 unknown
22:19 78.8 °F 68 °F 29.8 in WNW 3.1 mph 3.7 mph 72% 0 in 0.00 W/m2 unknown
22:24 78.8 °F 68 °F 29.8 in WNW 3.7 mph 3.7 mph 72% 0 in 0.00 W/m2 unknown
22:29 78.8 °F 69.8 °F 29.8 in West 3.1 mph 3.7 mph 72% 0 in 0.00 W/m2 unknown
22:34 78.8 °F 69.8 °F 29.8 in WNW 5 mph 8.1 mph 71% 0 in 0.00 W/m2 unknown
22:39 78.8 °F 69.8 °F 29.8 in WNW 5 mph 8.1 mph 71% 0 in 0.00 W/m2 unknown
22:44 78.8 °F 68 °F 29.8 in WNW 5 mph 8.1 mph 70% 0 in 0.00 W/m2 unknown
22:49 78.8 °F 68 °F 29.8 in NW 6.2 mph 13 mph 70% 0 in 0.00 W/m2 unknown
22:54 78.8 °F 68 °F 29.8 in NW 6.8 mph 13 mph 70% 0 in 0.00 W/m2 unknown
22:59 78.8 °F 68 °F 29.8 in NW 5.6 mph 11.8 mph 69% 0 in 0.00 W/m2 unknown
23:04 78.8 °F 68 °F 29.8 in WNW 5.6 mph 8.1 mph 69% 0 in 0.00 W/m2 unknown
23:09 78.8 °F 68 °F 29.8 in WNW 5 mph 8.1 mph 69% 0 in 0.00 W/m2 unknown
23:14 78.8 °F 68 °F 29.8 in West 2.5 mph 3.7 mph 70% 0 in 0.00 W/m2 unknown
23:19 78.8 °F 68 °F 29.8 in NNW 1.9 mph 3.7 mph 71% 0 in 0.00 W/m2 unknown
23:24 78.8 °F 68 °F 29.8 in North 2.5 mph 3.7 mph 71% 0 in 0.00 W/m2 unknown
23:29 78.8 °F 68 °F 29.8 in NE 2.5 mph 3.7 mph 71% 0 in 0.00 W/m2 unknown
23:34 78.8 °F 68 °F 29.8 in ENE 3.1 mph 5 mph 71% 0 in 0.00 W/m2 unknown
23:39 78.8 °F 68 °F 29.8 in East 6.2 mph 9.3 mph 72% 0 in 0.00 W/m2 unknown
23:44 77 °F 68 °F 29.8 in East 5.6 mph 8.7 mph 73% 0 in 0.00 W/m2 unknown
23:49 77 °F 68 °F 29.8 in East 6.2 mph 8.1 mph 75% 0 in 0.00 W/m2 unknown
23:54 77 °F 68 °F 29.8 in East 6.2 mph 9.3 mph 76% 0 in 0.00 W/m2 unknown
23:59 77 °F 68 °F 29.8 in ESE 6.8 mph 9.3 mph 76% 0 in 0.00 W/m2 unknown
Stazione Meteorologica MeteoMincio Rivalta s/M (MN)
Con i complimenti di Weather Underground - 2 mb



METEO PILLOLE
La più intensa nevicata in 24 ore
Silver Lake - Colorado
Tra il 14 e il 15 aprile 1921 caddero 193 cm di neve
C'è anche un altro dato, ma non è ufficiale, a Roccacaramanico (1050m) in Abruzzo - Italia, Il 17 dicembre 1961 caddero 340 cm di neve.
Share

Non seguire questo link o sarai bannato dal sito!